createdAt,value
2022-09-26T00:02:07.686Z,11.60
2022-09-26T00:07:10.459Z,11.60
2022-09-26T00:12:13.150Z,11.60
2022-09-26T00:17:15.826Z,11.60
2022-09-26T00:22:18.911Z,11.60
2022-09-26T00:27:22.312Z,11.60
2022-09-26T00:32:25.119Z,11.60
2022-09-26T00:37:27.909Z,11.70
2022-09-26T00:42:30.894Z,11.50
2022-09-26T00:47:33.580Z,11.60
2022-09-26T00:52:37.006Z,11.80
2022-09-26T00:57:39.741Z,11.70
2022-09-26T01:02:42.620Z,11.70
2022-09-26T01:07:45.354Z,11.60
2022-09-26T01:12:48.188Z,11.70
2022-09-26T01:17:51.118Z,11.60
2022-09-26T01:22:53.776Z,11.70
2022-09-26T01:27:56.502Z,11.60
2022-09-26T01:32:59.949Z,11.70
2022-09-26T01:38:03.260Z,11.70
2022-09-26T01:43:06.177Z,11.70
2022-09-26T01:48:09.076Z,11.70
2022-09-26T01:53:12.865Z,11.80
2022-09-26T01:58:15.693Z,11.70
2022-09-26T02:03:18.437Z,11.60
2022-09-26T02:08:21.174Z,11.70
2022-09-26T02:13:24.010Z,11.60
2022-09-26T02:18:26.694Z,11.60
2022-09-26T02:23:29.393Z,11.60
2022-09-26T02:28:32.290Z,11.50
2022-09-26T02:33:35.033Z,11.60
2022-09-26T02:38:38.179Z,11.50
2022-09-26T02:43:41.160Z,11.50
2022-09-26T02:48:43.864Z,11.60
2022-09-26T02:53:46.548Z,11.50
2022-09-26T02:58:49.225Z,11.50
2022-09-26T03:03:51.904Z,11.50
2022-09-26T03:08:54.873Z,11.50
2022-09-26T03:13:57.595Z,11.40
2022-09-26T03:19:00.252Z,11.50
2022-09-26T03:24:02.979Z,11.50
2022-09-26T03:29:05.921Z,11.40
2022-09-26T03:34:09.098Z,11.40
2022-09-26T03:39:11.822Z,11.50
2022-09-26T03:44:14.676Z,11.50
2022-09-26T03:49:17.424Z,11.50
2022-09-26T03:54:20.083Z,11.50
2022-09-26T03:59:22.772Z,11.40
2022-09-26T04:04:25.478Z,11.40
2022-09-26T04:09:28.242Z,11.40
2022-09-26T04:14:31.423Z,11.40
2022-09-26T04:19:34.138Z,11.50
2022-09-26T04:24:38.287Z,11.50
2022-09-26T04:29:41.128Z,11.50
2022-09-26T04:34:44.542Z,11.50
2022-09-26T04:39:47.342Z,11.50
2022-09-26T04:44:50.018Z,11.50
2022-09-26T04:49:52.861Z,11.50
2022-09-26T04:54:55.667Z,11.50
2022-09-26T04:59:58.855Z,11.50
2022-09-26T05:05:01.870Z,11.40
2022-09-26T05:10:04.761Z,11.40
2022-09-26T05:15:08.829Z,11.30
2022-09-26T05:20:12.243Z,11.30
2022-09-26T05:25:32.939Z,11.30
2022-09-26T05:30:35.737Z,11.30
2022-09-26T05:35:38.447Z,11.10
2022-09-26T05:40:59.701Z,11.10
2022-09-26T05:46:03.887Z,11.10
2022-09-26T05:51:06.690Z,11.00
2022-09-26T05:56:18.524Z,11.00
2022-09-26T06:01:22.713Z,11.00
2022-09-26T06:06:25.605Z,11.00
2022-09-26T06:11:30.728Z,10.90
2022-09-26T06:21:39.916Z,11.00
2022-09-26T06:26:43.120Z,11.00
2022-09-26T06:31:46.371Z,11.10
2022-09-26T06:36:49.127Z,11.50
2022-09-26T06:41:56.260Z,11.60
2022-09-26T06:47:00.814Z,11.60
2022-09-26T06:52:03.690Z,11.60
2022-09-26T06:57:06.407Z,11.60
2022-09-26T07:02:09.250Z,11.80
2022-09-26T07:07:12.049Z,11.80
2022-09-26T07:12:16.113Z,11.90
2022-09-26T07:17:19.052Z,12.00
2022-09-26T07:22:21.801Z,12.00
2022-09-26T07:27:25.606Z,12.10
2022-09-26T07:32:28.721Z,12.20
2022-09-26T07:37:31.441Z,12.40
2022-09-26T07:42:35.663Z,12.40
2022-09-26T08:53:48.396Z,15.30
2022-09-26T08:58:52.429Z,15.30
2022-09-26T09:03:55.565Z,15.20
2022-09-26T09:08:58.330Z,14.70
2022-09-26T09:14:01.168Z,14.30
2022-09-26T09:19:04.820Z,14.00
2022-09-26T09:24:08.173Z,13.90
2022-09-26T09:29:11.095Z,14.10
2022-09-26T09:34:14.020Z,14.30
2022-09-26T09:39:16.909Z,14.40
2022-09-26T09:44:19.626Z,14.70
2022-09-26T09:49:22.670Z,15.30
2022-09-26T09:54:25.354Z,15.90
2022-09-26T09:59:28.745Z,16.30
2022-09-26T10:04:31.530Z,16.60
2022-09-26T10:09:39.260Z,16.30
2022-09-26T10:14:43.074Z,16.30
2022-09-26T10:19:48.543Z,16.80
2022-09-26T10:24:51.625Z,17.60
2022-09-26T10:29:55.373Z,17.80
2022-09-26T10:34:58.497Z,17.60
2022-09-26T10:40:19.235Z,16.80
2022-09-26T10:45:29.374Z,15.90
2022-09-26T10:50:32.493Z,14.80
2022-09-26T10:55:36.583Z,13.30
2022-09-26T11:00:40.245Z,12.70
2022-09-26T11:05:59.273Z,12.60
2022-09-26T11:16:07.008Z,13.70
2022-09-26T11:21:27.525Z,14.10
2022-09-26T11:26:32.157Z,14.40
2022-09-26T11:31:34.927Z,14.80
2022-09-26T11:36:39.659Z,15.20
2022-09-26T11:41:42.493Z,15.50
2022-09-26T11:46:47.623Z,15.80
2022-09-26T11:51:51.225Z,16.10
2022-09-26T11:56:53.887Z,16.40
2022-09-26T12:01:56.944Z,16.70
2022-09-26T12:07:01.951Z,16.60
2022-09-26T12:12:06.179Z,16.40
2022-09-26T12:17:08.890Z,15.90
2022-09-26T12:22:29.663Z,15.80
2022-09-26T12:27:32.664Z,15.90
2022-09-26T12:32:35.331Z,16.10
2022-09-26T12:37:39.342Z,15.90
2022-09-26T12:42:41.999Z,15.80
2022-09-26T12:47:44.761Z,15.90
2022-09-26T12:52:47.472Z,15.90
2022-09-26T12:57:51.036Z,15.80
2022-09-26T13:02:53.875Z,15.10
2022-09-26T13:07:57.328Z,14.50
2022-09-26T13:13:02.669Z,14.30
2022-09-26T13:18:05.345Z,14.20
2022-09-26T13:23:08.092Z,14.00
2022-09-26T13:28:10.809Z,13.90
2022-09-26T13:33:13.576Z,13.80
2022-09-26T13:38:16.330Z,13.90
2022-09-26T13:43:24.894Z,14.00
2022-09-26T13:48:27.573Z,14.00
2022-09-26T13:53:30.296Z,14.00
2022-09-26T13:58:35.749Z,14.40
2022-09-26T14:03:38.944Z,14.60
2022-09-26T14:08:59.272Z,14.60
2022-09-26T14:14:01.933Z,14.60
2022-09-26T14:19:04.967Z,14.80
2022-09-26T14:24:08.047Z,15.20
2022-09-26T14:29:10.821Z,15.40
2022-09-26T14:34:14.461Z,15.30
2022-09-26T14:39:18.407Z,15.30
2022-09-26T14:44:21.158Z,15.10
2022-09-26T14:49:24.284Z,15.00
2022-09-26T14:54:27.386Z,15.00
2022-09-26T14:59:30.114Z,14.90
2022-09-26T15:04:32.804Z,14.80
2022-09-26T15:09:40.093Z,14.80
2022-09-26T15:14:43.285Z,14.70
2022-09-26T15:19:46.133Z,14.60
2022-09-26T15:24:48.937Z,14.50
2022-09-26T15:29:51.634Z,14.50
2022-09-26T15:34:56.113Z,14.30
2022-09-26T15:39:59.268Z,14.20
2022-09-26T15:45:02.695Z,14.20
2022-09-26T15:50:08.835Z,14.10
2022-09-26T15:55:11.721Z,14.10
2022-09-26T16:00:14.626Z,14.10
2022-09-26T16:05:17.512Z,14.20
2022-09-26T16:10:20.319Z,14.10
2022-09-26T16:15:23.144Z,14.10
2022-09-26T16:20:26.946Z,14.00
2022-09-26T16:25:31.596Z,13.90
2022-09-26T16:30:34.414Z,13.70
2022-09-26T16:35:37.313Z,13.70
2022-09-26T16:40:40.082Z,13.60
2022-09-26T16:45:42.865Z,13.60
2022-09-26T16:50:45.720Z,13.60
2022-09-26T16:55:48.481Z,13.40
2022-09-26T17:01:09.082Z,13.20
2022-09-26T17:06:11.995Z,13.00
2022-09-26T17:11:14.904Z,12.80
2022-09-26T17:16:18.124Z,12.60
2022-09-26T17:21:22.863Z,12.50
2022-09-26T17:26:25.711Z,12.30
2022-09-26T17:31:28.592Z,12.20
2022-09-26T17:36:31.791Z,12.20
2022-09-26T17:41:34.813Z,12.40
2022-09-26T17:46:38.377Z,12.50
2022-09-26T17:51:42.332Z,12.60
2022-09-26T17:56:45.134Z,12.70
2022-09-26T18:01:48.137Z,12.70
2022-09-26T18:06:50.884Z,12.70
2022-09-26T18:11:54.274Z,12.70
2022-09-26T18:16:57.023Z,12.70
2022-09-26T18:21:59.864Z,12.60
2022-09-26T18:27:07.271Z,12.60
2022-09-26T18:32:10.895Z,12.60
2022-09-26T18:37:13.604Z,12.60
2022-09-26T18:42:17.494Z,12.60
2022-09-26T18:47:25.506Z,12.60
2022-09-26T18:52:30.565Z,12.60
2022-09-26T18:57:51.816Z,12.60
2022-09-26T19:02:55.320Z,12.60
2022-09-26T19:07:58.345Z,12.60
2022-09-26T19:13:01.810Z,12.60
2022-09-26T19:18:04.853Z,12.50
2022-09-26T19:23:08.340Z,12.60
2022-09-26T19:28:11.476Z,12.70
2022-09-26T19:33:14.633Z,12.60
2022-09-26T19:38:17.575Z,12.60
2022-09-26T19:43:20.710Z,12.50
2022-09-26T19:48:28.370Z,12.50
2022-09-26T19:53:31.744Z,12.40
2022-09-26T19:58:34.608Z,12.40
2022-09-26T20:03:40.084Z,12.30
2022-09-26T20:08:42.985Z,12.30
2022-09-26T20:14:04.505Z,12.30
2022-09-26T20:19:07.249Z,12.30
2022-09-26T20:24:10.045Z,12.30
2022-09-26T20:29:13.063Z,12.30
2022-09-26T20:34:17.309Z,12.30
2022-09-26T20:39:21.669Z,12.30
2022-09-26T20:44:27.072Z,12.20
2022-09-26T20:49:30.150Z,12.20
2022-09-26T20:54:33.049Z,12.20
2022-09-26T20:59:36.553Z,12.20
2022-09-26T21:04:39.404Z,12.20
2022-09-26T21:09:42.433Z,12.10
2022-09-26T21:14:45.390Z,12.10
2022-09-26T21:19:48.384Z,12.10
2022-09-26T21:24:51.510Z,12.10
2022-09-26T21:29:54.690Z,12.10
2022-09-26T21:34:57.790Z,12.10
2022-09-26T21:40:03.087Z,12.00
2022-09-26T21:45:06.186Z,11.90
2022-09-26T21:50:09.718Z,11.80
2022-09-26T21:55:12.822Z,11.80
2022-09-26T22:00:16.060Z,11.70
2022-09-26T22:05:22.732Z,11.70
2022-09-26T22:10:27.122Z,11.80
2022-09-26T22:15:30.553Z,11.80
2022-09-26T22:20:33.714Z,11.80
2022-09-26T22:25:42.106Z,11.80
2022-09-26T22:30:46.459Z,11.80
2022-09-26T22:35:49.654Z,11.80
2022-09-26T22:40:53.405Z,11.80
2022-09-26T22:45:56.629Z,11.80
2022-09-26T22:50:59.574Z,11.90
2022-09-26T22:56:05.436Z,11.80
2022-09-26T23:01:08.646Z,11.80
2022-09-26T23:06:11.937Z,11.80
2022-09-26T23:11:14.872Z,11.80
2022-09-26T23:16:18.152Z,11.80
2022-09-26T23:21:21.136Z,11.80
2022-09-26T23:26:24.594Z,11.80
2022-09-26T23:31:27.630Z,11.80
2022-09-26T23:36:30.935Z,11.80
2022-09-26T23:41:33.687Z,11.80
2022-09-26T23:46:36.754Z,11.80
2022-09-26T23:51:39.502Z,11.70
2022-09-26T23:56:42.219Z,11.70
